createdAt,value
2017-12-03T00:02:25.025Z,13.73
2017-12-03T00:04:53.148Z,12.88
2017-12-03T00:07:21.303Z,10.60
2017-12-03T00:09:49.464Z,15.27
2017-12-03T00:12:17.605Z,17.20
2017-12-03T00:14:45.729Z,14.43
2017-12-03T00:17:13.882Z,13.75
2017-12-03T00:19:42.010Z,14.15
2017-12-03T00:22:10.166Z,16.05
2017-12-03T00:24:38.288Z,14.00
2017-12-03T00:27:06.437Z,16.83
2017-12-03T00:29:34.570Z,16.35
2017-12-03T00:32:02.723Z,16.70
2017-12-03T00:34:30.854Z,14.57
2017-12-03T00:36:59.773Z,17.73
2017-12-03T00:39:27.901Z,16.67
2017-12-03T00:41:56.825Z,16.73
2017-12-03T00:44:24.958Z,18.40
2017-12-03T00:46:53.113Z,17.33
2017-12-03T00:49:21.245Z,17.20
2017-12-03T00:51:49.400Z,18.77
2017-12-03T00:54:17.533Z,17.27
2017-12-03T00:56:45.685Z,13.82
2017-12-03T00:59:13.823Z,17.85
2017-12-03T01:01:41.983Z,13.38
2017-12-03T01:04:10.121Z,17.58
2017-12-03T01:06:38.260Z,16.55
2017-12-03T01:09:06.411Z,18.85
2017-12-03T01:11:35.350Z,17.80
2017-12-03T01:14:03.484Z,17.42
2017-12-03T01:16:31.657Z,15.20
2017-12-03T01:18:59.785Z,21.90
2017-12-03T01:21:28.012Z,17.65
2017-12-03T01:23:56.198Z,17.08
2017-12-03T01:26:24.370Z,16.92
2017-12-03T01:28:52.528Z,12.95
2017-12-03T01:31:20.663Z,13.52
2017-12-03T01:33:48.828Z,18.37
2017-12-03T01:36:16.967Z,18.85
2017-12-03T01:38:45.138Z,17.62
2017-12-03T01:41:13.273Z,15.27
2017-12-03T01:43:41.445Z,16.70
2017-12-03T01:46:09.581Z,20.60
2017-12-03T01:48:37.737Z,17.27
2017-12-03T01:51:05.886Z,17.35
2017-12-03T01:53:34.089Z,18.45
2017-12-03T01:56:02.222Z,20.45
2017-12-03T01:58:30.362Z,20.92
2017-12-03T02:00:58.534Z,18.87
2017-12-03T02:03:26.666Z,18.33
2017-12-03T02:05:54.822Z,16.75
2017-12-03T02:08:22.958Z,21.48
2017-12-03T02:10:51.106Z,9.73
2017-12-03T02:13:19.236Z,14.93
2017-12-03T02:15:48.158Z,19.12
2017-12-03T02:18:16.280Z,18.83
2017-12-03T02:20:44.441Z,18.87
2017-12-03T02:23:12.580Z,18.58
2017-12-03T02:25:40.739Z,19.60
2017-12-03T02:28:08.863Z,18.00
2017-12-03T02:30:37.029Z,17.98
2017-12-03T02:33:05.189Z,17.27
2017-12-03T02:35:33.318Z,20.50
2017-12-03T02:38:01.480Z,18.15
2017-12-03T02:40:30.382Z,17.40
2017-12-03T02:42:58.538Z,18.95
2017-12-03T02:45:26.673Z,17.35
2017-12-03T02:47:54.830Z,20.67
2017-12-03T02:50:22.958Z,18.17
2017-12-03T02:52:51.121Z,20.30
2017-12-03T02:55:19.258Z,19.80
2017-12-03T02:57:47.409Z,17.30
2017-12-03T03:00:15.545Z,19.48
2017-12-03T03:02:43.697Z,19.95
2017-12-03T03:05:11.826Z,18.48
2017-12-03T03:07:39.981Z,20.12
2017-12-03T03:10:08.105Z,18.75
2017-12-03T03:12:36.257Z,16.40
2017-12-03T03:15:04.408Z,21.80
2017-12-03T03:17:33.304Z,20.70
2017-12-03T03:20:01.457Z,19.45
2017-12-03T03:22:30.386Z,21.70
2017-12-03T03:24:58.513Z,20.10
2017-12-03T03:27:26.669Z,22.35
2017-12-03T03:29:54.802Z,22.25
2017-12-03T03:32:22.953Z,23.02
2017-12-03T03:34:51.080Z,21.35
2017-12-03T03:37:19.242Z,19.70
2017-12-03T03:39:47.380Z,23.25
2017-12-03T03:42:15.538Z,22.65
2017-12-03T03:44:43.675Z,21.70
2017-12-03T03:47:11.802Z,21.00
2017-12-03T03:49:40.724Z,22.77
2017-12-03T03:52:08.850Z,19.27
2017-12-03T03:54:37.768Z,16.17
2017-12-03T03:57:05.900Z,21.90
2017-12-03T03:59:34.053Z,22.27
2017-12-03T04:02:02.180Z,21.42
2017-12-03T04:04:30.345Z,21.67
2017-12-03T04:06:58.486Z,23.15
2017-12-03T04:09:26.642Z,21.25
2017-12-03T04:11:54.765Z,21.77
2017-12-03T04:14:23.684Z,20.00
2017-12-03T04:16:51.821Z,20.20
2017-12-03T04:19:19.979Z,21.85
2017-12-03T04:21:48.108Z,21.17
2017-12-03T04:24:16.276Z,20.77
2017-12-03T04:26:44.417Z,22.17
2017-12-03T04:29:12.548Z,21.42
2017-12-03T04:31:40.698Z,21.15
2017-12-03T04:34:08.825Z,21.58
2017-12-03T04:36:36.985Z,23.40
2017-12-03T04:39:05.109Z,22.17
2017-12-03T04:41:33.261Z,22.25
2017-12-03T04:44:01.394Z,22.05
2017-12-03T04:46:29.541Z,21.80
2017-12-03T04:48:57.669Z,22.98
2017-12-03T04:51:25.834Z,23.98
2017-12-03T04:53:53.964Z,22.65
2017-12-03T04:56:22.124Z,23.55
2017-12-03T04:58:50.260Z,16.40
2017-12-03T05:01:18.381Z,22.00
2017-12-03T05:03:46.537Z,23.80
2017-12-03T05:06:14.666Z,23.23
2017-12-03T05:08:42.826Z,23.55
2017-12-03T05:11:10.951Z,17.20
2017-12-03T05:13:39.120Z,21.77
2017-12-03T05:16:07.258Z,23.40
2017-12-03T05:18:35.400Z,24.05
2017-12-03T05:21:03.530Z,22.35
2017-12-03T05:23:31.680Z,23.38
2017-12-03T05:25:59.815Z,25.12
2017-12-03T05:28:27.973Z,27.95
2017-12-03T05:30:56.096Z,24.80
2017-12-03T05:33:24.253Z,21.80
2017-12-03T05:35:52.390Z,23.90
2017-12-03T05:38:20.552Z,18.75
2017-12-03T05:40:49.467Z,28.00
2017-12-03T05:43:17.629Z,19.77
2017-12-03T05:45:45.758Z,26.27
2017-12-03T05:48:13.894Z,24.25
2017-12-03T05:50:42.045Z,24.33
2017-12-03T05:53:10.182Z,24.02
2017-12-03T05:55:38.334Z,20.10
2017-12-03T05:58:06.457Z,25.15
2017-12-03T06:00:34.614Z,27.67
2017-12-03T06:03:02.740Z,20.45
2017-12-03T06:05:30.901Z,25.92
2017-12-03T06:07:59.037Z,23.65
2017-12-03T06:10:27.187Z,19.23
2017-12-03T06:12:55.313Z,26.42
2017-12-03T06:15:23.469Z,27.80
2017-12-03T06:17:51.609Z,25.50
2017-12-03T06:20:19.761Z,25.48
2017-12-03T06:22:47.894Z,25.60
2017-12-03T06:25:16.058Z,27.73
2017-12-03T06:27:44.954Z,26.87
2017-12-03T06:30:13.082Z,24.37
2017-12-03T06:32:41.235Z,25.90
2017-12-03T06:35:09.366Z,27.30
2017-12-03T06:37:37.519Z,25.98
2017-12-03T06:40:05.649Z,25.60
2017-12-03T06:42:33.805Z,28.55
2017-12-03T06:45:01.933Z,28.35
2017-12-03T06:47:30.088Z,27.35
2017-12-03T06:49:58.226Z,26.15
2017-12-03T06:52:26.378Z,24.77
2017-12-03T06:54:55.274Z,26.65
2017-12-03T06:57:23.434Z,27.83
2017-12-03T06:59:52.337Z,27.50
2017-12-03T07:02:20.487Z,26.85
2017-12-03T07:04:48.623Z,24.80
2017-12-03T07:07:16.781Z,25.92
2017-12-03T07:09:44.909Z,26.60
2017-12-03T07:12:13.678Z,24.92
2017-12-03T07:14:41.804Z,14.02
2017-12-03T07:17:09.988Z,23.67
2017-12-03T07:19:38.108Z,29.40
2017-12-03T07:22:06.262Z,25.90
2017-12-03T07:24:34.384Z,23.12
2017-12-03T07:27:03.305Z,23.05
2017-12-03T07:29:31.433Z,28.52
2017-12-03T07:32:00.350Z,25.40
2017-12-03T07:34:28.483Z,23.08
2017-12-03T07:36:56.606Z,24.45
2017-12-03T07:39:24.758Z,25.02
2017-12-03T07:41:52.904Z,23.27
2017-12-03T07:44:21.061Z,20.23
2017-12-03T07:46:49.184Z,23.75
2017-12-03T07:49:17.336Z,21.50
2017-12-03T07:51:45.466Z,25.37
2017-12-03T07:54:13.622Z,23.20
2017-12-03T07:56:41.744Z,21.95
2017-12-03T07:59:09.901Z,21.95
2017-12-03T08:01:38.034Z,24.02
2017-12-03T08:04:06.187Z,21.10
2017-12-03T08:06:34.308Z,26.98
2017-12-03T08:09:02.461Z,19.83
2017-12-03T08:11:30.602Z,22.20
2017-12-03T08:13:58.752Z,21.85
2017-12-03T08:16:26.887Z,27.27
2017-12-03T08:18:55.042Z,22.50
2017-12-03T08:21:23.171Z,23.75
2017-12-03T08:23:51.318Z,19.55
2017-12-03T08:26:19.480Z,19.15
2017-12-03T08:28:47.613Z,23.75
2017-12-03T08:31:16.509Z,26.98
2017-12-03T08:33:44.671Z,27.08
2017-12-03T08:36:13.565Z,24.90
2017-12-03T08:38:41.756Z,17.05
2017-12-03T08:41:09.885Z,23.87
2017-12-03T08:43:38.045Z,21.00
2017-12-03T08:46:06.171Z,20.85
2017-12-03T08:48:34.329Z,16.52
2017-12-03T08:51:02.457Z,14.75
2017-12-03T08:53:30.614Z,20.00
2017-12-03T08:55:58.747Z,18.85
2017-12-03T08:58:26.897Z,19.05
2017-12-03T09:00:55.023Z,19.73
2017-12-03T09:03:23.176Z,17.83
2017-12-03T09:05:51.305Z,17.60
2017-12-03T09:08:19.461Z,19.25
2017-12-03T09:10:47.594Z,18.02
2017-12-03T09:13:16.508Z,17.45
2017-12-03T09:15:44.634Z,17.42
2017-12-03T09:18:12.801Z,16.62
2017-12-03T09:20:40.941Z,17.87
2017-12-03T09:23:09.089Z,18.23
2017-12-03T09:25:37.220Z,14.23
2017-12-03T09:28:05.390Z,16.02
2017-12-03T09:30:33.522Z,15.63
2017-12-03T09:33:01.686Z,11.05
2017-12-03T09:35:29.812Z,16.67
2017-12-03T09:37:57.953Z,17.40
2017-12-03T09:40:26.128Z,13.90
2017-12-03T09:42:54.319Z,13.68
2017-12-03T09:45:22.487Z,16.33
2017-12-03T09:47:50.613Z,14.25
2017-12-03T09:50:18.775Z,14.55
2017-12-03T09:52:46.902Z,14.98
2017-12-03T09:55:15.049Z,16.70
2017-12-03T09:57:43.182Z,14.48
2017-12-03T10:00:11.348Z,16.15
2017-12-03T10:02:39.486Z,14.30
2017-12-03T10:05:07.638Z,11.80
2017-12-03T10:07:35.769Z,15.93
2017-12-03T10:10:03.930Z,14.50
2017-12-03T10:12:32.069Z,12.63
2017-12-03T10:15:00.228Z,14.18
2017-12-03T10:17:29.121Z,13.30
2017-12-03T10:19:57.269Z,12.40
2017-12-03T10:22:25.393Z,13.60
2017-12-03T10:24:53.565Z,16.92
2017-12-03T10:27:21.697Z,11.93
2017-12-03T10:29:49.853Z,12.48
2017-12-03T10:32:17.982Z,13.05
2017-12-03T10:34:46.138Z,14.55
2017-12-03T10:37:14.431Z,12.48
2017-12-03T10:39:42.628Z,13.02
2017-12-03T10:42:10.776Z,10.32
2017-12-03T10:44:39.127Z,13.43
2017-12-03T10:47:07.413Z,13.80
2017-12-03T10:49:35.549Z,12.95
2017-12-03T10:52:03.756Z,11.15
2017-12-03T10:54:32.646Z,12.40
2017-12-03T10:57:00.883Z,12.63
2017-12-03T10:59:29.010Z,11.93
2017-12-03T11:01:57.172Z,18.55
2017-12-03T11:04:25.310Z,15.60
2017-12-03T11:06:53.472Z,9.32
2017-12-03T11:09:22.659Z,10.55
2017-12-03T11:11:50.830Z,10.15
2017-12-03T11:14:18.961Z,8.15
2017-12-03T11:16:47.100Z,9.10
2017-12-03T11:19:15.242Z,7.07
2017-12-03T11:21:43.396Z,10.52
2017-12-03T11:24:11.538Z,8.00
2017-12-03T11:26:39.674Z,7.90
2017-12-03T11:29:07.794Z,8.27
2017-12-03T11:31:35.955Z,7.12
2017-12-03T11:34:04.077Z,9.23
2017-12-03T11:36:32.232Z,5.70
2017-12-03T11:39:00.352Z,8.18
2017-12-03T11:41:28.512Z,8.48
2017-12-03T11:43:56.659Z,8.32
2017-12-03T11:46:24.836Z,7.60
2017-12-03T11:48:52.955Z,7.28
2017-12-03T11:51:21.107Z,7.00
2017-12-03T11:53:49.220Z,5.87
2017-12-03T11:56:18.132Z,4.87
2017-12-03T11:58:46.271Z,5.35
2017-12-03T12:01:14.439Z,6.32
2017-12-03T12:03:42.562Z,6.68
2017-12-03T12:06:10.705Z,6.32
2017-12-03T12:08:38.856Z,5.68
2017-12-03T12:11:06.970Z,7.28
2017-12-03T12:13:35.117Z,6.22
2017-12-03T12:16:03.778Z,5.78
2017-12-03T12:18:31.926Z,6.62
2017-12-03T12:21:00.049Z,6.40
2017-12-03T12:23:28.209Z,6.62
2017-12-03T12:25:56.326Z,6.72
2017-12-03T12:28:24.454Z,5.85
2017-12-03T12:30:52.606Z,5.82
2017-12-03T12:33:21.528Z,6.30
2017-12-03T12:35:49.674Z,5.30
2017-12-03T12:38:17.865Z,5.65
2017-12-03T12:40:45.982Z,6.05
2017-12-03T12:43:14.143Z,6.40
2017-12-03T12:45:42.274Z,6.15
2017-12-03T12:48:10.421Z,5.15
2017-12-03T12:50:38.540Z,5.32
2017-12-03T12:53:06.751Z,5.50
2017-12-03T12:55:34.865Z,5.37
2017-12-03T12:58:03.012Z,4.62
2017-12-03T13:00:31.132Z,3.80
2017-12-03T13:02:59.285Z,5.65
2017-12-03T13:05:27.401Z,4.95
2017-12-03T13:07:55.546Z,5.43
2017-12-03T13:10:23.669Z,5.45
2017-12-03T13:12:51.825Z,5.65
2017-12-03T13:15:20.710Z,6.35
2017-12-03T13:17:48.869Z,5.37
2017-12-03T13:20:16.982Z,5.15
2017-12-03T13:22:45.110Z,5.40
2017-12-03T13:25:13.252Z,6.30
2017-12-03T13:27:41.370Z,5.50
2017-12-03T13:30:09.531Z,6.20
2017-12-03T13:32:37.669Z,5.30
2017-12-03T13:35:05.817Z,4.82
2017-12-03T13:37:33.929Z,4.85
2017-12-03T13:40:02.083Z,4.93
2017-12-03T13:42:30.206Z,5.55
2017-12-03T13:44:58.370Z,5.70
2017-12-03T13:47:26.496Z,5.20
2017-12-03T13:49:54.641Z,5.22
2017-12-03T13:52:22.769Z,5.95
2017-12-03T13:54:50.913Z,4.07
2017-12-03T13:57:19.030Z,7.20
2017-12-03T13:59:47.253Z,4.95
2017-12-03T14:02:15.367Z,7.05
2017-12-03T14:04:43.541Z,5.47
2017-12-03T14:07:11.653Z,6.93
2017-12-03T14:09:39.826Z,6.28
2017-12-03T14:12:07.947Z,6.30
2017-12-03T14:14:36.092Z,6.78
2017-12-03T14:17:04.216Z,6.28
2017-12-03T14:19:32.366Z,6.90
2017-12-03T14:22:00.502Z,7.53
2017-12-03T14:24:28.657Z,7.93
2017-12-03T14:26:57.552Z,7.75
2017-12-03T14:29:25.700Z,7.57
2017-12-03T14:31:53.827Z,8.20
2017-12-03T14:34:21.989Z,8.30
2017-12-03T14:36:50.113Z,9.18
2017-12-03T14:39:18.249Z,8.73
2017-12-03T14:41:46.390Z,8.70
2017-12-03T14:44:15.287Z,8.10
2017-12-03T14:46:43.438Z,9.18
2017-12-03T14:49:11.565Z,9.68
2017-12-03T14:51:39.726Z,9.73
2017-12-03T14:54:07.853Z,10.65
2017-12-03T14:56:36.011Z,9.65
2017-12-03T14:59:04.144Z,10.30
2017-12-03T15:01:32.306Z,12.13
2017-12-03T15:04:01.294Z,11.38
2017-12-03T15:06:29.453Z,10.98
2017-12-03T15:08:57.586Z,11.98
2017-12-03T15:11:25.746Z,10.23
2017-12-03T15:13:53.873Z,12.45
2017-12-03T15:16:22.023Z,10.88
2017-12-03T15:18:50.164Z,12.20
2017-12-03T15:21:18.350Z,12.00
2017-12-03T15:23:46.479Z,14.55
2017-12-03T15:26:14.636Z,14.32
2017-12-03T15:28:42.765Z,12.43
2017-12-03T15:31:10.926Z,11.55
2017-12-03T15:33:39.078Z,12.80
2017-12-03T15:36:07.230Z,14.27
2017-12-03T15:38:35.356Z,13.30
2017-12-03T15:41:03.522Z,13.82
2017-12-03T15:43:31.669Z,15.20
2017-12-03T15:45:59.804Z,16.52
2017-12-03T15:48:27.956Z,16.33
2017-12-03T15:50:56.081Z,16.83
2017-12-03T15:53:25.005Z,29.55
2017-12-03T15:55:53.139Z,18.65
2017-12-03T15:58:21.325Z,23.10
2017-12-03T16:00:49.463Z,26.33
2017-12-03T16:03:17.619Z,20.42
2017-12-03T16:05:45.764Z,23.45
2017-12-03T16:08:13.983Z,15.95
2017-12-03T16:10:42.138Z,18.15
2017-12-03T16:13:10.339Z,19.65
2017-12-03T16:15:38.469Z,16.25
2017-12-03T16:18:06.624Z,18.52
2017-12-03T16:20:34.757Z,19.62
2017-12-03T16:23:02.952Z,22.42
2017-12-03T16:25:31.077Z,16.30
2017-12-03T16:27:59.239Z,20.88
2017-12-03T16:30:27.392Z,17.00
2017-12-03T16:32:55.547Z,19.45
2017-12-03T16:35:23.668Z,17.42
2017-12-03T16:37:51.829Z,18.23
2017-12-03T16:40:19.979Z,18.23
2017-12-03T16:42:48.201Z,19.48
2017-12-03T16:45:16.389Z,18.98
2017-12-03T16:47:44.576Z,19.65
2017-12-03T16:50:12.785Z,20.20
2017-12-03T16:52:40.948Z,15.75
2017-12-03T16:55:09.845Z,22.25
2017-12-03T16:57:38.007Z,19.77
2017-12-03T17:00:06.902Z,23.17
2017-12-03T17:02:35.060Z,22.55
2017-12-03T17:05:04.111Z,21.50
2017-12-03T17:07:32.279Z,21.67
2017-12-03T17:10:00.449Z,21.17
2017-12-03T17:12:28.630Z,21.85
2017-12-03T17:14:56.768Z,23.60
2017-12-03T17:17:24.896Z,21.15
2017-12-03T17:19:53.044Z,22.80
2017-12-03T17:22:21.183Z,22.65
2017-12-03T17:24:50.101Z,18.35
2017-12-03T17:27:18.268Z,22.83
2017-12-03T17:29:46.450Z,23.95
2017-12-03T17:32:14.577Z,22.73
2017-12-03T17:34:42.751Z,23.58
2017-12-03T17:37:10.874Z,23.98
2017-12-03T17:39:39.029Z,26.33
2017-12-03T17:42:07.180Z,24.67
2017-12-03T17:44:35.342Z,28.23
2017-12-03T17:47:03.540Z,27.20
2017-12-03T17:49:31.707Z,26.17
2017-12-03T17:52:14.242Z,27.87
2017-12-03T17:54:42.418Z,28.92
2017-12-03T17:57:10.601Z,28.02
2017-12-03T17:59:38.762Z,30.23
2017-12-03T18:02:06.924Z,28.98
2017-12-03T18:04:35.868Z,29.87
2017-12-03T18:07:04.022Z,30.10
2017-12-03T18:09:32.245Z,30.27
2017-12-03T18:12:00.390Z,32.53
2017-12-03T18:14:28.562Z,31.37
2017-12-03T18:16:56.743Z,31.35
2017-12-03T18:19:25.100Z,29.25
2017-12-03T18:21:54.342Z,31.50
2017-12-03T18:24:23.026Z,33.83
2017-12-03T18:26:52.035Z,31.58
2017-12-03T18:29:20.672Z,32.25
2017-12-03T18:31:49.120Z,34.97
2017-12-03T18:34:18.158Z,32.75
2017-12-03T18:36:46.473Z,29.75
2017-12-03T18:39:14.752Z,30.48
2017-12-03T18:41:44.000Z,33.47
2017-12-03T18:44:12.747Z,30.80
2017-12-03T18:46:41.467Z,32.85
2017-12-03T18:49:09.785Z,33.17
2017-12-03T18:51:38.849Z,32.85
2017-12-03T18:54:08.017Z,35.53
2017-12-03T18:56:37.380Z,34.55
2017-12-03T18:59:06.313Z,34.40
2017-12-03T19:01:34.488Z,34.25
2017-12-03T19:04:03.159Z,33.05
2017-12-03T19:06:31.398Z,34.97
2017-12-03T19:08:59.550Z,33.10
2017-12-03T19:11:27.700Z,31.42
2017-12-03T19:13:55.841Z,33.67
2017-12-03T19:16:24.250Z,37.15
2017-12-03T19:18:52.615Z,37.75
2017-12-03T19:21:20.767Z,35.42
2017-12-03T19:23:48.893Z,34.70
2017-12-03T19:26:17.054Z,37.33
2017-12-03T19:28:45.196Z,33.58
2017-12-03T19:31:13.939Z,33.35
2017-12-03T19:33:42.060Z,33.05
2017-12-03T19:36:10.228Z,35.40
2017-12-03T19:38:39.125Z,36.00
2017-12-03T19:41:07.281Z,33.67
2017-12-03T19:43:36.288Z,31.50
2017-12-03T19:46:05.304Z,36.38
2017-12-03T19:48:33.429Z,31.50
2017-12-03T19:51:01.599Z,31.35
2017-12-03T19:53:29.729Z,29.55
2017-12-03T19:55:57.886Z,29.77
2017-12-03T19:58:26.012Z,28.35
2017-12-03T20:00:54.189Z,32.80
2017-12-03T20:03:22.309Z,30.30
2017-12-03T20:05:50.475Z,29.98
2017-12-03T20:08:18.606Z,28.70
2017-12-03T20:10:46.765Z,30.27
2017-12-03T20:13:14.921Z,28.38
2017-12-03T20:15:43.085Z,32.85
2017-12-03T20:18:11.446Z,30.30
2017-12-03T20:20:39.580Z,28.50
2017-12-03T20:23:07.788Z,28.55
2017-12-03T20:25:35.920Z,28.90
2017-12-03T20:28:04.081Z,26.67
2017-12-03T20:30:32.209Z,27.77
2017-12-03T20:33:00.372Z,26.80
2017-12-03T20:35:28.529Z,24.30
2017-12-03T20:37:56.685Z,25.92
2017-12-03T20:40:24.813Z,26.75
2017-12-03T20:42:52.966Z,23.60
2017-12-03T20:45:21.088Z,22.33
2017-12-03T20:47:49.253Z,22.58
2017-12-03T20:50:17.410Z,18.77
2017-12-03T20:52:45.573Z,18.98
2017-12-03T20:55:13.697Z,17.80
2017-12-03T20:57:41.871Z,16.80
2017-12-03T21:00:09.998Z,14.57
2017-12-03T21:02:38.158Z,16.30
2017-12-03T21:05:06.315Z,16.05
2017-12-03T21:07:34.736Z,13.40
2017-12-03T21:10:02.887Z,13.20
2017-12-03T21:12:31.071Z,12.85
2017-12-03T21:14:59.202Z,13.15
2017-12-03T21:17:27.367Z,13.07
2017-12-03T21:19:55.503Z,11.70
2017-12-03T21:22:23.727Z,11.90
2017-12-03T21:24:51.851Z,10.32
2017-12-03T21:27:19.999Z,9.05
2017-12-03T21:29:48.137Z,7.22
2017-12-03T21:32:16.298Z,7.53
2017-12-03T21:34:44.455Z,7.20
2017-12-03T21:37:12.602Z,6.65
2017-12-03T21:39:40.726Z,5.78
2017-12-03T21:42:08.885Z,6.05
2017-12-03T21:44:37.033Z,4.75
2017-12-03T21:47:05.161Z,5.28
2017-12-03T21:49:33.331Z,4.87
2017-12-03T21:52:01.450Z,5.00
2017-12-03T21:54:29.605Z,4.35
2017-12-03T21:56:58.499Z,4.05
2017-12-03T21:59:26.649Z,4.47
2017-12-03T22:01:54.792Z,4.53
2017-12-03T22:04:22.945Z,3.28
2017-12-03T22:06:51.082Z,3.97
2017-12-03T22:09:19.232Z,3.70
2017-12-03T22:11:47.381Z,3.08
2017-12-03T22:14:15.540Z,4.78
2017-12-03T22:16:43.662Z,3.95
2017-12-03T22:19:11.843Z,3.70
2017-12-03T22:21:39.977Z,3.30
2017-12-03T22:24:08.132Z,3.50
2017-12-03T22:26:36.274Z,3.05
2017-12-03T22:29:04.425Z,2.67
2017-12-03T22:31:32.572Z,2.72
2017-12-03T22:34:00.718Z,2.92
2017-12-03T22:36:28.841Z,2.33
2017-12-03T22:38:56.988Z,3.40
2017-12-03T22:41:25.112Z,2.97
2017-12-03T22:43:54.025Z,2.70
2017-12-03T22:46:22.141Z,2.97
2017-12-03T22:48:50.285Z,3.03
2017-12-03T22:51:18.415Z,3.37
2017-12-03T22:53:46.581Z,3.05
2017-12-03T22:56:14.705Z,3.45
2017-12-03T22:58:42.825Z,3.70
2017-12-03T23:01:10.980Z,4.40
2017-12-03T23:03:39.104Z,3.42
2017-12-03T23:06:07.253Z,3.75
2017-12-03T23:08:35.382Z,3.35
2017-12-03T23:11:03.532Z,3.92
2017-12-03T23:13:31.661Z,4.50
2017-12-03T23:15:59.812Z,2.85
2017-12-03T23:18:27.949Z,2.70
2017-12-03T23:20:56.089Z,3.33
2017-12-03T23:23:24.982Z,2.75
2017-12-03T23:25:53.130Z,2.67
2017-12-03T23:28:21.251Z,2.65
2017-12-03T23:30:49.396Z,3.30
2017-12-03T23:33:17.528Z,2.95
2017-12-03T23:35:45.679Z,2.60
2017-12-03T23:38:13.798Z,2.80
2017-12-03T23:40:41.955Z,2.97
2017-12-03T23:43:10.078Z,3.60
2017-12-03T23:45:38.231Z,2.72
2017-12-03T23:48:06.354Z,3.28
2017-12-03T23:50:34.494Z,2.65
2017-12-03T23:53:03.387Z,3.33
2017-12-03T23:55:31.529Z,3.47
2017-12-03T23:57:59.657Z,4.05
